createdAt,value
2018-09-13T00:00:07.328Z,5.90
2018-09-13T00:01:07.298Z,6.00
2018-09-13T00:02:07.269Z,5.90
2018-09-13T00:03:07.264Z,5.90
2018-09-13T00:04:07.212Z,6.00
2018-09-13T00:05:07.180Z,5.70
2018-09-13T00:06:07.151Z,5.80
2018-09-13T00:07:07.126Z,5.90
2018-09-13T00:08:07.089Z,6.10
2018-09-13T00:09:07.068Z,6.40
2018-09-13T00:10:07.028Z,6.00
2018-09-13T00:11:06.998Z,6.70
2018-09-13T00:12:06.968Z,6.00
2018-09-13T00:13:06.938Z,6.00
2018-09-13T00:14:06.917Z,6.20
2018-09-13T00:15:06.878Z,6.70
2018-09-13T00:16:06.846Z,6.40
2018-09-13T00:17:06.816Z,6.70
2018-09-13T00:18:06.792Z,7.00
2018-09-13T00:19:06.764Z,6.60
2018-09-13T00:20:06.730Z,6.70
2018-09-13T00:21:06.701Z,7.20
2018-09-13T00:22:06.672Z,6.30
2018-09-13T00:23:06.638Z,7.20
2018-09-13T00:24:06.620Z,6.30
2018-09-13T00:25:06.576Z,6.50
2018-09-13T00:26:06.548Z,6.60
2018-09-13T00:27:06.520Z,6.00
2018-09-13T00:28:06.488Z,6.30
2018-09-13T00:29:06.465Z,6.10
2018-09-13T00:30:06.426Z,6.80
2018-09-13T00:31:06.396Z,6.90
2018-09-13T00:32:06.366Z,6.20
2018-09-13T00:33:06.337Z,6.80
2018-09-13T00:34:06.314Z,6.10
2018-09-13T00:35:06.278Z,7.10
2018-09-13T00:36:06.244Z,6.70
2018-09-13T00:37:06.215Z,6.30
2018-09-13T00:38:06.186Z,6.20
2018-09-13T00:39:06.174Z,6.30
2018-09-13T00:40:06.131Z,7.10
2018-09-13T00:41:06.094Z,7.30
2018-09-13T00:42:06.066Z,6.50
2018-09-13T00:43:06.038Z,7.30
2018-09-13T00:44:06.004Z,7.40
2018-09-13T00:45:05.983Z,6.80
2018-09-13T00:46:05.948Z,6.70
2018-09-13T00:47:05.916Z,5.90
2018-09-13T00:48:05.883Z,7.60
2018-09-13T00:49:05.856Z,5.90
2018-09-13T00:50:05.835Z,6.60
2018-09-13T00:51:05.792Z,6.60
2018-09-13T00:52:05.763Z,7.40
2018-09-13T00:53:05.732Z,6.60
2018-09-13T00:54:05.704Z,7.80
2018-09-13T00:55:05.681Z,6.80
2018-09-13T00:56:05.644Z,7.40
2018-09-13T00:57:05.609Z,7.10
2018-09-13T00:58:05.582Z,7.30
2018-09-13T00:59:05.611Z,7.30
2018-09-13T01:00:05.527Z,7.00
2018-09-13T01:01:05.488Z,7.30
2018-09-13T01:02:05.457Z,8.50
2018-09-13T01:03:05.430Z,8.40
2018-09-13T01:04:05.396Z,8.50
2018-09-13T01:05:05.379Z,7.50
2018-09-13T01:06:05.348Z,8.70
2018-09-13T01:07:05.312Z,8.70
2018-09-13T01:08:05.278Z,8.70
2018-09-13T01:09:05.250Z,7.80
2018-09-13T01:10:05.223Z,7.50
2018-09-13T01:11:05.188Z,7.50
2018-09-13T01:12:05.153Z,7.30
2018-09-13T01:13:05.129Z,7.80
2018-09-13T01:14:05.094Z,7.80
2018-09-13T01:15:05.078Z,8.40
2018-09-13T01:16:05.032Z,7.70
2018-09-13T01:17:05.008Z,8.30
2018-09-13T01:18:04.974Z,9.00
2018-09-13T01:19:04.953Z,8.00
2018-09-13T01:20:04.911Z,8.70
2018-09-13T01:21:04.893Z,9.00
2018-09-13T01:22:04.853Z,8.40
2018-09-13T01:23:04.822Z,9.40
2018-09-13T01:24:04.790Z,9.10
2018-09-13T01:25:04.761Z,9.10
2018-09-13T01:26:04.738Z,8.90
2018-09-13T01:27:04.699Z,9.30
2018-09-13T01:28:04.668Z,8.80
2018-09-13T01:29:04.640Z,9.10
2018-09-13T01:30:04.608Z,9.10
2018-09-13T01:31:04.591Z,9.60
2018-09-13T01:32:04.548Z,9.60
2018-09-13T01:33:04.518Z,9.20
2018-09-13T01:34:04.487Z,9.40
2018-09-13T01:35:04.458Z,9.20
2018-09-13T01:36:04.437Z,9.60
2018-09-13T01:37:04.396Z,9.60
2018-09-13T01:38:04.372Z,9.80
2018-09-13T01:39:04.341Z,9.80
2018-09-13T01:40:04.440Z,9.60
2018-09-13T01:41:04.283Z,9.90
2018-09-13T01:42:04.244Z,9.10
2018-09-13T01:43:04.215Z,9.80
2018-09-13T01:44:04.186Z,10.70
2018-09-13T01:45:04.151Z,10.20
2018-09-13T01:46:04.131Z,10.70
2018-09-13T01:47:04.093Z,10.20
2018-09-13T01:48:04.062Z,10.00
2018-09-13T01:49:04.034Z,10.70
2018-09-13T01:50:04.008Z,10.60
2018-09-13T01:51:03.978Z,10.50
2018-09-13T01:52:03.953Z,10.10
2018-09-13T01:53:03.907Z,11.30
2018-09-13T01:54:03.881Z,11.00
2018-09-13T01:55:03.856Z,11.40
2018-09-13T01:56:03.823Z,11.30
2018-09-13T01:57:03.798Z,11.10
2018-09-13T01:58:03.758Z,12.00
2018-09-13T01:59:03.729Z,11.70
2018-09-13T02:00:03.702Z,10.80
2018-09-13T02:01:03.666Z,11.50
2018-09-13T02:02:03.643Z,12.70
2018-09-13T02:03:03.606Z,11.90
2018-09-13T02:04:03.585Z,11.70
2018-09-13T02:05:03.546Z,12.00
2018-09-13T02:06:03.515Z,12.20
2018-09-13T02:07:03.493Z,12.10
2018-09-13T02:08:03.452Z,12.90
2018-09-13T02:09:03.424Z,12.40
2018-09-13T02:10:03.396Z,12.20
2018-09-13T02:11:03.361Z,12.50
2018-09-13T02:12:03.340Z,12.40
2018-09-13T02:13:03.302Z,13.30
2018-09-13T02:14:03.292Z,13.20
2018-09-13T02:15:03.247Z,12.60
2018-09-13T02:16:03.212Z,12.60
2018-09-13T02:17:03.191Z,13.90
2018-09-13T02:18:03.152Z,13.10
2018-09-13T02:19:03.120Z,13.10
2018-09-13T02:20:03.091Z,13.90
2018-09-13T02:21:03.062Z,13.80
2018-09-13T02:22:03.597Z,13.90
2018-09-13T02:23:03.000Z,12.70
2018-09-13T02:24:02.966Z,14.50
2018-09-13T02:25:02.937Z,14.30
2018-09-13T02:26:02.908Z,14.20
2018-09-13T02:27:02.875Z,13.70
2018-09-13T02:28:02.863Z,15.50
2018-09-13T02:29:02.811Z,15.10
2018-09-13T02:30:02.787Z,14.30
2018-09-13T02:31:02.758Z,14.40
2018-09-13T02:32:02.724Z,14.40
2018-09-13T02:33:02.702Z,14.70
2018-09-13T02:34:02.662Z,15.60
2018-09-13T02:35:02.634Z,15.40
2018-09-13T02:36:02.604Z,15.00
2018-09-13T02:37:02.570Z,16.70
2018-09-13T02:38:02.549Z,15.00
2018-09-13T02:39:02.508Z,16.20
2018-09-13T02:40:02.482Z,17.40
2018-09-13T02:41:02.448Z,17.20
2018-09-13T02:42:02.417Z,15.70
2018-09-13T02:43:02.397Z,14.60
2018-09-13T02:44:02.360Z,15.40
2018-09-13T02:45:02.333Z,16.40
2018-09-13T02:46:02.296Z,17.20
2018-09-13T02:47:02.275Z,14.70
2018-09-13T02:48:02.246Z,15.90
2018-09-13T02:49:02.242Z,15.00
2018-09-13T02:50:02.176Z,15.10
2018-09-13T02:51:02.151Z,15.30
2018-09-13T02:52:02.113Z,15.70
2018-09-13T02:53:02.094Z,16.50
2018-09-13T02:54:02.054Z,15.10
2018-09-13T02:55:02.023Z,15.20
2018-09-13T02:56:01.991Z,16.60
2018-09-13T02:57:01.962Z,17.10
2018-09-13T02:58:01.949Z,16.90
2018-09-13T02:59:01.900Z,16.80
2018-09-13T03:00:01.875Z,16.60
2018-09-13T03:01:01.837Z,15.20
2018-09-13T03:02:01.807Z,15.90
2018-09-13T03:03:01.776Z,16.10
2018-09-13T03:04:01.758Z,15.70
2018-09-13T03:05:01.717Z,15.30
2018-09-13T03:06:01.688Z,17.10
2018-09-13T03:07:01.656Z,16.20
2018-09-13T03:08:01.625Z,16.80
2018-09-13T03:09:01.607Z,17.00
2018-09-13T03:10:01.564Z,16.30
2018-09-13T03:11:01.535Z,15.70
2018-09-13T03:12:01.504Z,16.00
2018-09-13T03:13:01.475Z,17.20
2018-09-13T03:14:01.449Z,16.60
2018-09-13T03:15:01.412Z,17.10
2018-09-13T03:16:01.384Z,18.40
2018-09-13T03:17:01.348Z,18.70
2018-09-13T03:18:01.324Z,18.10
2018-09-13T03:19:01.295Z,17.80
2018-09-13T03:20:01.255Z,16.60
2018-09-13T03:21:01.234Z,18.40
2018-09-13T03:22:01.197Z,17.40
2018-09-13T03:23:01.221Z,18.00
2018-09-13T03:24:01.142Z,17.00
2018-09-13T03:25:01.104Z,18.00
2018-09-13T03:26:01.071Z,17.80
2018-09-13T03:27:01.043Z,19.50
2018-09-13T03:28:01.013Z,18.60
2018-09-13T03:29:00.992Z,18.10
2018-09-13T03:30:00.949Z,18.70
2018-09-13T03:31:00.920Z,18.10
2018-09-13T03:32:00.894Z,18.00
2018-09-13T03:33:00.860Z,18.10
2018-09-13T03:34:00.837Z,18.70
2018-09-13T03:35:00.804Z,17.90
2018-09-13T03:36:00.768Z,19.20
2018-09-13T03:37:00.739Z,17.80
2018-09-13T03:38:00.707Z,19.50
2018-09-13T03:39:00.719Z,18.20
2018-09-13T03:40:00.648Z,18.20
2018-09-13T03:41:00.614Z,18.70
2018-09-13T03:42:00.628Z,21.20
2018-09-13T03:43:00.552Z,19.10
2018-09-13T03:44:00.523Z,19.70
2018-09-13T03:45:00.503Z,18.80
2018-09-13T03:46:00.460Z,19.40
2018-09-13T03:47:00.430Z,18.40
2018-09-13T03:48:00.399Z,18.00
2018-09-13T03:49:00.368Z,18.60
2018-09-13T03:50:00.346Z,17.90
2018-09-13T03:51:00.312Z,18.70
2018-09-13T03:52:00.281Z,18.20
2018-09-13T03:53:00.245Z,18.00
2018-09-13T03:54:00.234Z,17.70
2018-09-13T03:55:00.197Z,19.50
2018-09-13T03:56:00.157Z,20.00
2018-09-13T03:57:00.123Z,20.30
2018-09-13T03:58:00.092Z,19.60
2018-09-13T03:59:00.066Z,18.60
2018-09-13T04:00:00.040Z,21.20
2018-09-13T04:01:00.000Z,18.70
2018-09-13T04:01:59.971Z,18.20
2018-09-13T04:02:59.940Z,19.50
2018-09-13T04:03:59.905Z,18.80
2018-09-13T04:04:59.885Z,19.80
2018-09-13T04:05:59.847Z,20.60
2018-09-13T04:06:59.817Z,19.80
2018-09-13T04:07:59.791Z,20.80
2018-09-13T04:08:59.757Z,21.10
2018-09-13T04:09:59.740Z,19.90
2018-09-13T04:10:59.697Z,21.40
2018-09-13T04:11:59.666Z,20.80
2018-09-13T04:12:59.632Z,21.20
2018-09-13T04:13:59.603Z,22.30
2018-09-13T04:14:59.572Z,21.60
2018-09-13T04:15:59.572Z,22.90
2018-09-13T04:16:59.518Z,21.80
2018-09-13T04:17:59.479Z,21.60
2018-09-13T04:18:59.560Z,23.30
2018-09-13T04:19:59.419Z,22.60
2018-09-13T04:20:59.403Z,23.80
2018-09-13T04:21:59.362Z,23.20
2018-09-13T04:22:59.325Z,23.20
2018-09-13T04:23:59.295Z,23.30
2018-09-13T04:24:59.264Z,21.80
2018-09-13T04:25:59.242Z,22.60
2018-09-13T04:26:59.203Z,24.00
2018-09-13T04:27:59.171Z,24.40
2018-09-13T04:28:59.141Z,23.40
2018-09-13T04:29:59.112Z,24.90
2018-09-13T04:30:59.093Z,25.20
2018-09-13T04:31:59.052Z,26.00
2018-09-13T04:32:59.085Z,26.00
2018-09-13T04:33:58.988Z,25.20
2018-09-13T04:34:58.961Z,24.70
2018-09-13T04:35:59.016Z,25.20
2018-09-13T04:36:58.893Z,26.70
2018-09-13T04:37:58.864Z,24.60
2018-09-13T04:38:58.832Z,24.50
2018-09-13T04:39:58.803Z,26.00
2018-09-13T04:40:58.780Z,25.60
2018-09-13T04:41:58.741Z,25.60
2018-09-13T04:42:58.713Z,25.50
2018-09-13T04:43:58.679Z,27.40
2018-09-13T04:44:58.649Z,27.10
2018-09-13T04:45:58.629Z,27.50
2018-09-13T04:46:58.605Z,24.80
2018-09-13T04:47:58.556Z,24.80
2018-09-13T04:48:58.574Z,26.20
2018-09-13T04:49:58.495Z,26.50
2018-09-13T04:50:58.493Z,25.50
2018-09-13T04:51:58.433Z,26.20
2018-09-13T04:52:58.402Z,26.20
2018-09-13T04:53:58.377Z,25.70
2018-09-13T04:54:58.341Z,26.30
2018-09-13T04:55:58.309Z,25.80
2018-09-13T04:56:58.294Z,25.70
2018-09-13T04:57:58.250Z,26.40
2018-09-13T04:58:58.219Z,26.40
2018-09-13T04:59:58.187Z,27.60
2018-09-13T05:00:58.156Z,27.20
2018-09-13T05:01:58.133Z,25.90
2018-09-13T05:02:58.098Z,26.70
2018-09-13T05:03:58.062Z,27.90
2018-09-13T05:04:58.032Z,28.40
2018-09-13T05:05:58.002Z,28.40
2018-09-13T05:06:57.977Z,27.00
2018-09-13T05:07:57.946Z,28.20
2018-09-13T05:08:57.909Z,27.50
2018-09-13T05:09:57.881Z,27.50
2018-09-13T05:10:57.851Z,27.40
2018-09-13T05:11:57.824Z,27.20
2018-09-13T05:12:57.802Z,28.10
2018-09-13T05:13:57.754Z,28.20
2018-09-13T05:14:57.724Z,27.80
2018-09-13T05:15:57.726Z,27.10
2018-09-13T05:16:57.670Z,27.90
2018-09-13T05:17:57.631Z,30.10
2018-09-13T05:18:57.616Z,29.20
2018-09-13T05:19:57.568Z,28.80
2018-09-13T05:20:57.537Z,28.30
2018-09-13T05:21:57.526Z,29.20
2018-09-13T05:22:57.476Z,29.20
2018-09-13T05:23:57.444Z,28.40
2018-09-13T05:24:57.415Z,27.60
2018-09-13T05:25:57.382Z,28.80
2018-09-13T05:26:57.354Z,29.90
2018-09-13T05:27:57.331Z,27.90
2018-09-13T05:28:57.291Z,29.20
2018-09-13T05:29:57.259Z,28.30
2018-09-13T05:30:57.228Z,30.10
2018-09-13T05:31:57.193Z,29.10
2018-09-13T05:32:57.178Z,29.70
2018-09-13T05:33:57.135Z,30.20
2018-09-13T05:34:57.108Z,28.90
2018-09-13T05:35:57.079Z,30.10
2018-09-13T05:36:57.047Z,28.90
2018-09-13T05:37:57.023Z,30.30
2018-09-13T05:38:57.028Z,29.20
2018-09-13T05:39:56.947Z,28.10
2018-09-13T05:40:56.919Z,29.20
2018-09-13T05:41:56.891Z,30.00
2018-09-13T05:42:56.868Z,29.30
2018-09-13T05:43:56.825Z,28.80
2018-09-13T05:44:56.794Z,29.00
2018-09-13T05:45:56.771Z,29.80
2018-09-13T05:46:56.732Z,28.40
2018-09-13T05:47:56.712Z,28.50
2018-09-13T05:48:56.673Z,29.00
2018-09-13T05:49:56.642Z,31.50
2018-09-13T05:50:56.608Z,30.30
2018-09-13T05:51:56.577Z,30.60
2018-09-13T05:52:56.558Z,29.70
2018-09-13T05:53:56.516Z,28.30
2018-09-13T05:54:56.482Z,28.60
2018-09-13T05:55:56.453Z,30.90
2018-09-13T05:56:56.422Z,29.50
2018-09-13T05:57:56.399Z,30.10
2018-09-13T05:58:56.360Z,30.30
2018-09-13T05:59:56.330Z,30.40
2018-09-13T06:00:56.301Z,29.10
2018-09-13T06:01:56.276Z,28.60
2018-09-13T06:02:56.253Z,28.20
2018-09-13T06:03:56.207Z,28.80
2018-09-13T06:04:56.175Z,30.90
2018-09-13T06:05:56.147Z,27.90
2018-09-13T06:06:56.115Z,29.20
2018-09-13T06:07:56.096Z,27.60
2018-09-13T06:08:56.061Z,28.10
2018-09-13T06:09:56.024Z,27.70
2018-09-13T06:10:55.993Z,28.00
2018-09-13T06:11:55.962Z,27.60
2018-09-13T06:12:55.939Z,27.00
2018-09-13T06:13:55.909Z,26.30
2018-09-13T06:14:55.869Z,27.00
2018-09-13T06:15:55.837Z,27.40
2018-09-13T06:16:55.807Z,25.70
2018-09-13T06:17:55.777Z,27.00
2018-09-13T06:18:55.754Z,26.00
2018-09-13T06:19:55.718Z,26.10
2018-09-13T06:20:55.684Z,26.60
2018-09-13T06:21:55.655Z,25.50
2018-09-13T06:22:55.640Z,27.10
2018-09-13T06:23:55.603Z,26.20
2018-09-13T06:24:55.562Z,27.50
2018-09-13T06:25:55.531Z,26.00
2018-09-13T06:26:55.510Z,26.10
2018-09-13T06:27:55.471Z,26.50
2018-09-13T06:28:55.449Z,26.70
2018-09-13T06:29:55.413Z,26.20
2018-09-13T06:30:55.380Z,26.40
2018-09-13T06:31:55.353Z,27.40
2018-09-13T06:32:55.318Z,25.80
2018-09-13T06:33:55.299Z,26.10
2018-09-13T06:34:55.264Z,26.60
2018-09-13T06:35:55.257Z,24.70
2018-09-13T06:36:56.300Z,24.00
2018-09-13T06:37:55.165Z,24.80
2018-09-13T06:38:55.159Z,23.90
2018-09-13T06:39:55.113Z,25.40
2018-09-13T06:40:55.070Z,24.10
2018-09-13T06:41:55.083Z,23.80
2018-09-13T06:42:55.018Z,24.30
2018-09-13T06:43:55.005Z,22.40
2018-09-13T06:44:54.961Z,22.90
2018-09-13T06:45:54.920Z,25.90
2018-09-13T06:46:54.891Z,23.60
2018-09-13T06:47:54.865Z,24.80
2018-09-13T06:48:54.829Z,23.70
2018-09-13T06:49:54.813Z,24.20
2018-09-13T06:50:54.771Z,22.70
2018-09-13T06:51:54.748Z,23.40
2018-09-13T06:52:54.709Z,23.10
2018-09-13T06:53:54.683Z,21.70
2018-09-13T06:54:54.663Z,24.20
2018-09-13T06:55:54.620Z,23.30
2018-09-13T06:56:54.591Z,24.10
2018-09-13T06:57:54.559Z,21.60
2018-09-13T06:58:54.532Z,21.90
2018-09-13T06:59:54.508Z,21.60
2018-09-13T07:00:54.471Z,21.50
2018-09-13T07:01:54.441Z,21.00
2018-09-13T07:02:54.410Z,23.40
2018-09-13T07:03:54.378Z,22.30
2018-09-13T07:04:54.369Z,20.20
2018-09-13T07:05:54.320Z,21.40
2018-09-13T07:06:54.291Z,21.00
2018-09-13T07:07:54.260Z,21.30
2018-09-13T07:08:54.246Z,21.60
2018-09-13T07:09:54.199Z,22.50
2018-09-13T07:10:54.178Z,21.90
2018-09-13T07:11:54.138Z,20.90
2018-09-13T07:12:54.113Z,20.00
2018-09-13T07:13:54.081Z,20.50
2018-09-13T07:14:54.056Z,19.90
2018-09-13T07:15:54.036Z,21.20
2018-09-13T07:16:53.986Z,21.00
2018-09-13T07:17:53.961Z,20.20
2018-09-13T07:18:53.930Z,20.40
2018-09-13T07:19:53.900Z,20.80
2018-09-13T07:20:53.881Z,19.70
2018-09-13T07:21:53.840Z,21.30
2018-09-13T07:22:53.814Z,22.40
2018-09-13T07:23:53.786Z,21.10
2018-09-13T07:24:53.754Z,20.60
2018-09-13T07:25:53.734Z,21.40
2018-09-13T07:26:53.694Z,21.20
2018-09-13T07:27:53.664Z,20.40
2018-09-13T07:28:53.643Z,21.10
2018-09-13T07:29:53.608Z,21.20
2018-09-13T07:30:53.650Z,20.70
2018-09-13T07:31:53.543Z,20.80
2018-09-13T07:32:53.510Z,22.10
2018-09-13T07:33:53.481Z,22.00
2018-09-13T07:34:53.456Z,20.80
2018-09-13T07:35:53.434Z,22.00
2018-09-13T07:36:53.462Z,20.50
2018-09-13T07:37:53.366Z,19.90
2018-09-13T07:38:53.344Z,20.80
2018-09-13T07:39:53.315Z,20.00
2018-09-13T07:40:53.300Z,19.60
2018-09-13T07:41:53.253Z,20.20
2018-09-13T07:42:53.272Z,20.90
2018-09-13T07:43:53.192Z,20.60
2018-09-13T07:44:53.157Z,20.80
2018-09-13T07:45:53.134Z,22.00
2018-09-13T07:46:53.119Z,19.50
2018-09-13T07:47:53.073Z,21.00
2018-09-13T07:48:53.111Z,20.80
2018-09-13T07:49:53.163Z,20.20
2018-09-13T07:50:52.983Z,21.70
2018-09-13T07:51:52.965Z,20.20
2018-09-13T07:52:52.925Z,19.10
2018-09-13T07:53:52.899Z,18.20
2018-09-13T07:54:52.867Z,19.20
2018-09-13T07:55:52.880Z,18.00
2018-09-13T07:56:52.820Z,17.80
2018-09-13T07:57:52.788Z,18.30
2018-09-13T07:58:52.752Z,15.90
2018-09-13T07:59:52.722Z,16.90
2018-09-13T08:00:52.693Z,17.00
2018-09-13T08:01:52.670Z,17.10
2018-09-13T08:02:52.653Z,17.60
2018-09-13T08:03:52.612Z,16.40
2018-09-13T08:04:52.578Z,17.30
2018-09-13T08:05:52.545Z,16.40
2018-09-13T08:06:52.527Z,17.20
2018-09-13T08:07:52.487Z,17.30
2018-09-13T08:08:52.458Z,17.30
2018-09-13T08:09:52.430Z,16.50
2018-09-13T08:10:52.401Z,16.30
2018-09-13T08:11:52.416Z,16.40
2018-09-13T08:12:52.346Z,15.60
2018-09-13T08:13:52.320Z,15.40
2018-09-13T08:14:52.284Z,14.50
2018-09-13T08:15:52.313Z,15.40
2018-09-13T08:16:52.225Z,15.50
2018-09-13T08:17:52.208Z,15.50
2018-09-13T08:18:52.173Z,14.80
2018-09-13T08:19:52.144Z,14.00
2018-09-13T08:20:52.115Z,13.30
2018-09-13T08:21:52.091Z,13.90
2018-09-13T08:22:52.069Z,13.10
2018-09-13T08:23:52.029Z,14.10
2018-09-13T08:24:51.998Z,13.70
2018-09-13T08:25:51.972Z,12.50
2018-09-13T08:26:51.945Z,13.00
2018-09-13T08:27:51.919Z,12.30
2018-09-13T08:28:51.884Z,11.80
2018-09-13T08:29:51.855Z,12.10
2018-09-13T08:30:51.827Z,10.50
2018-09-13T08:31:51.800Z,11.10
2018-09-13T08:32:51.776Z,10.50
2018-09-13T08:33:51.742Z,10.60
2018-09-13T08:34:51.842Z,9.00
2018-09-13T08:35:51.684Z,9.80
2018-09-13T08:36:51.707Z,9.40
2018-09-13T08:37:51.638Z,9.90
2018-09-13T08:38:51.600Z,8.50
2018-09-13T08:39:51.623Z,8.40
2018-09-13T08:40:51.542Z,7.90
2018-09-13T08:41:51.514Z,8.10
2018-09-13T08:42:51.493Z,8.30
2018-09-13T08:43:51.455Z,8.30
2018-09-13T08:44:51.782Z,7.80
2018-09-13T08:45:51.399Z,8.10
2018-09-13T08:46:51.390Z,7.70
2018-09-13T08:47:51.364Z,7.90
2018-09-13T08:48:51.313Z,6.80
2018-09-13T08:49:51.292Z,7.70
2018-09-13T08:50:51.259Z,7.40
2018-09-13T08:51:51.230Z,7.00
2018-09-13T08:52:51.226Z,7.10
2018-09-13T08:53:51.171Z,7.10
2018-09-13T08:54:51.145Z,7.20
2018-09-13T08:55:51.116Z,8.00
2018-09-13T08:56:51.088Z,7.50
2018-09-13T08:57:51.120Z,6.20
2018-09-13T08:58:51.033Z,6.50
2018-09-13T08:59:51.004Z,6.40
2018-09-13T09:00:51.020Z,6.10
2018-09-13T09:01:50.951Z,6.80
2018-09-13T09:02:50.936Z,6.60
2018-09-13T09:03:50.891Z,5.60
2018-09-13T09:04:50.865Z,6.50
2018-09-13T09:05:50.839Z,5.70
2018-09-13T09:06:50.812Z,6.10
2018-09-13T09:07:50.780Z,6.30
2018-09-13T09:08:50.761Z,6.20
2018-09-13T09:09:50.728Z,6.80
2018-09-13T09:10:50.700Z,5.60
2018-09-13T09:11:50.719Z,6.40
2018-09-13T09:12:50.639Z,5.90
2018-09-13T09:13:50.622Z,6.20
2018-09-13T09:14:50.589Z,6.10
2018-09-13T09:15:50.561Z,6.30
2018-09-13T09:16:50.529Z,6.10
2018-09-13T09:17:50.509Z,6.10
2018-09-13T09:18:50.481Z,6.00
2018-09-13T09:19:50.446Z,6.50
2018-09-13T09:20:50.418Z,6.70
2018-09-13T09:21:50.391Z,6.30
2018-09-13T09:22:50.362Z,6.60
2018-09-13T09:23:50.342Z,6.60
2018-09-13T09:24:50.317Z,6.60
2018-09-13T09:25:50.281Z,6.60
2018-09-13T09:26:50.254Z,7.10
2018-09-13T09:27:50.229Z,6.90
2018-09-13T09:28:50.218Z,7.80
2018-09-13T09:29:50.240Z,8.60
2018-09-13T09:30:50.147Z,7.80
2018-09-13T09:31:50.120Z,8.30
2018-09-13T09:32:50.102Z,7.00
2018-09-13T09:33:50.063Z,8.20
2018-09-13T09:34:50.133Z,7.80
2018-09-13T09:35:50.008Z,7.70
2018-09-13T09:36:49.980Z,8.30
2018-09-13T09:37:49.957Z,9.70
2018-09-13T09:38:49.928Z,8.70
2018-09-13T09:39:49.927Z,9.40
2018-09-13T09:40:49.874Z,9.40
2018-09-13T09:41:49.845Z,9.90
2018-09-13T09:42:49.817Z,9.80
2018-09-13T09:43:49.791Z,9.90
2018-09-13T09:44:49.777Z,10.10
2018-09-13T09:45:49.737Z,9.30
2018-09-13T09:46:49.707Z,9.90
2018-09-13T09:47:49.678Z,9.80
2018-09-13T09:48:49.658Z,10.40
2018-09-13T09:49:49.636Z,11.10
2018-09-13T09:50:49.598Z,12.50
2018-09-13T09:51:49.621Z,14.50
2018-09-13T09:52:49.544Z,13.30
2018-09-13T09:53:49.519Z,13.50
2018-09-13T09:54:49.496Z,13.70
2018-09-13T09:55:49.460Z,13.40
2018-09-13T09:56:49.440Z,11.60
2018-09-13T09:57:49.443Z,13.80
2018-09-13T09:58:49.380Z,14.60
2018-09-13T09:59:49.378Z,15.30
2018-09-13T10:00:49.324Z,13.80
2018-09-13T10:01:49.298Z,13.40
2018-09-13T10:02:49.271Z,12.90
2018-09-13T10:03:49.246Z,11.90
2018-09-13T10:04:49.222Z,13.20
2018-09-13T10:05:49.204Z,11.60
2018-09-13T10:06:49.162Z,11.50
2018-09-13T10:07:49.135Z,12.50
2018-09-13T10:08:49.116Z,11.90
2018-09-13T10:09:49.124Z,12.60
2018-09-13T10:10:49.063Z,12.90
2018-09-13T10:11:49.027Z,12.00
2018-09-13T10:12:48.999Z,11.60
2018-09-13T10:13:48.973Z,11.10
2018-09-13T10:14:48.947Z,11.90
2018-09-13T10:15:48.935Z,11.30
2018-09-13T10:16:48.894Z,12.40
2018-09-13T10:17:48.865Z,12.90
2018-09-13T10:18:48.840Z,13.10
2018-09-13T10:19:48.816Z,13.30
2018-09-13T10:20:48.794Z,12.70
2018-09-13T10:21:48.762Z,13.00
2018-09-13T10:22:48.795Z,13.50
2018-09-13T10:23:48.706Z,13.70
2018-09-13T10:24:48.681Z,14.70
2018-09-13T10:25:48.662Z,13.90
2018-09-13T10:26:48.631Z,13.10
2018-09-13T10:27:48.609Z,12.70
2018-09-13T10:28:48.582Z,12.30
2018-09-13T10:29:48.583Z,12.30
2018-09-13T10:30:48.528Z,11.80
2018-09-13T10:31:48.492Z,12.00
2018-09-13T10:32:48.465Z,13.00
2018-09-13T10:33:48.445Z,13.20
2018-09-13T10:34:48.415Z,11.90
2018-09-13T10:35:48.414Z,11.80
2018-09-13T10:36:48.364Z,11.40
2018-09-13T10:37:48.337Z,11.60
2018-09-13T10:38:48.306Z,11.00
2018-09-13T10:39:48.280Z,10.30
2018-09-13T10:40:48.327Z,10.40
2018-09-13T10:41:48.239Z,9.20
2018-09-13T10:42:48.203Z,9.20
2018-09-13T10:43:48.175Z,9.30
2018-09-13T10:44:48.154Z,8.80
2018-09-13T10:45:48.138Z,8.80
2018-09-13T10:46:48.104Z,9.40
2018-09-13T10:47:56.485Z,9.90
2018-09-13T10:48:48.042Z,9.30
2018-09-13T10:49:48.023Z,10.80
2018-09-13T10:50:47.988Z,9.80
2018-09-13T10:51:47.972Z,9.30
2018-09-13T10:52:47.939Z,8.20
2018-09-13T10:53:47.913Z,8.80
2018-09-13T10:54:47.895Z,7.80
2018-09-13T10:55:47.901Z,8.60
2018-09-13T10:56:47.842Z,8.00
2018-09-13T10:57:47.807Z,7.70
2018-09-13T10:58:47.788Z,8.10
2018-09-13T10:59:47.756Z,7.70
2018-09-13T11:00:47.728Z,7.60
2018-09-13T11:01:47.736Z,8.10
2018-09-13T11:02:47.674Z,6.80
2018-09-13T11:03:47.649Z,6.70
2018-09-13T11:04:47.621Z,7.30
2018-09-13T11:05:47.651Z,7.30
2018-09-13T11:06:47.585Z,7.40
2018-09-13T11:07:47.543Z,6.70
2018-09-13T11:08:47.522Z,7.40
2018-09-13T11:09:47.499Z,6.50
2018-09-13T11:10:47.564Z,6.30
2018-09-13T11:11:47.448Z,6.60
2018-09-13T11:12:47.411Z,7.10
2018-09-13T11:13:47.391Z,7.00
2018-09-13T11:14:47.362Z,7.20
2018-09-13T11:15:47.335Z,6.90
2018-09-13T11:16:47.326Z,6.60
2018-09-13T11:17:47.282Z,7.50
2018-09-13T11:18:47.258Z,6.40
2018-09-13T11:19:47.238Z,6.10
2018-09-13T11:20:47.208Z,7.00
2018-09-13T11:21:47.200Z,6.70
2018-09-13T11:22:47.164Z,6.80
2018-09-13T11:23:47.126Z,7.70
2018-09-13T11:24:47.103Z,7.50
2018-09-13T11:25:47.071Z,6.10
2018-09-13T11:26:47.062Z,7.20
2018-09-13T11:27:47.033Z,7.10
2018-09-13T11:28:47.006Z,7.60
2018-09-13T11:29:46.970Z,6.70
2018-09-13T11:30:46.949Z,7.00
2018-09-13T11:31:46.921Z,6.50
2018-09-13T11:32:47.082Z,6.20
2018-09-13T11:33:46.866Z,6.80
2018-09-13T11:34:46.842Z,6.00
2018-09-13T11:35:46.816Z,6.30
2018-09-13T11:36:46.787Z,6.20
2018-09-13T11:37:46.770Z,6.10
2018-09-13T11:38:46.741Z,6.90
2018-09-13T11:39:46.719Z,6.20
2018-09-13T11:40:46.955Z,6.70
2018-09-13T11:41:46.659Z,6.70
2018-09-13T11:42:46.644Z,6.70
2018-09-13T11:43:46.608Z,5.90
2018-09-13T11:44:46.584Z,6.30
2018-09-13T11:45:46.558Z,6.80
2018-09-13T11:46:46.534Z,6.50
2018-09-13T11:47:46.525Z,6.30
2018-09-13T11:48:46.478Z,5.10
2018-09-13T11:49:46.461Z,5.10
2018-09-13T11:50:46.427Z,5.50
2018-09-13T11:51:46.403Z,5.50
2018-09-13T11:52:46.374Z,5.30
2018-09-13T11:53:46.356Z,6.00
2018-09-13T11:54:46.338Z,5.30
2018-09-13T11:55:46.295Z,5.50
2018-09-13T11:56:46.280Z,6.20
2018-09-13T11:57:46.246Z,5.50
2018-09-13T11:58:46.230Z,6.20
2018-09-13T11:59:46.188Z,5.80
2018-09-13T12:00:46.164Z,6.00
2018-09-13T12:01:46.140Z,5.00
2018-09-13T12:02:46.113Z,5.40
2018-09-13T12:03:46.099Z,5.20
2018-09-13T12:04:46.060Z,5.20
2018-09-13T12:05:46.035Z,5.60
2018-09-13T12:06:46.008Z,5.70
2018-09-13T12:07:45.982Z,5.60
2018-09-13T12:08:45.963Z,5.10
2018-09-13T12:09:45.930Z,5.00
2018-09-13T12:10:45.921Z,5.20
2018-09-13T12:11:45.877Z,5.70
2018-09-13T12:12:45.849Z,7.70
2018-09-13T12:13:45.871Z,8.60
2018-09-13T12:14:45.801Z,6.30
2018-09-13T12:15:45.773Z,5.20
2018-09-13T12:16:45.747Z,5.40
2018-09-13T12:17:45.811Z,4.70
2018-09-13T12:18:45.695Z,5.00
2018-09-13T12:19:45.680Z,4.30
2018-09-13T12:20:45.646Z,4.00
2018-09-13T12:21:45.622Z,4.70
2018-09-13T12:22:45.597Z,4.20
2018-09-13T12:23:45.564Z,4.30
2018-09-13T12:24:45.549Z,4.90
2018-09-13T12:25:45.515Z,4.50
2018-09-13T12:26:45.492Z,4.70
2018-09-13T12:27:45.462Z,5.00
2018-09-13T12:28:45.443Z,4.20
2018-09-13T12:29:45.420Z,4.30
2018-09-13T12:30:45.387Z,4.70
2018-09-13T12:31:45.356Z,4.10
2018-09-13T12:32:45.388Z,4.90
2018-09-13T12:33:45.317Z,4.30
2018-09-13T12:34:45.287Z,4.50
2018-09-13T12:35:45.254Z,4.30
2018-09-13T12:36:45.231Z,4.30
2018-09-13T12:37:45.208Z,4.00
2018-09-13T12:38:45.178Z,4.10
2018-09-13T12:39:45.175Z,4.00
2018-09-13T12:40:45.130Z,4.30
2018-09-13T12:41:45.106Z,4.20
2018-09-13T12:42:45.077Z,3.90
2018-09-13T12:43:45.051Z,4.10
2018-09-13T12:44:45.049Z,4.60
2018-09-13T12:45:45.010Z,4.10
2018-09-13T12:46:44.976Z,3.60
2018-09-13T12:47:44.953Z,3.70
2018-09-13T12:48:44.924Z,4.30
2018-09-13T12:49:44.904Z,4.60
2018-09-13T12:50:44.875Z,4.30
2018-09-13T12:51:44.849Z,4.10
2018-09-13T12:52:44.826Z,4.60
2018-09-13T12:53:44.794Z,3.90
2018-09-13T12:54:44.787Z,3.90
2018-09-13T12:55:44.757Z,4.00
2018-09-13T12:56:44.798Z,4.20
2018-09-13T12:57:44.698Z,4.90
2018-09-13T12:58:44.678Z,4.40
2018-09-13T12:59:44.644Z,4.80
2018-09-13T13:00:44.629Z,4.60
2018-09-13T13:01:44.591Z,4.20